LIBP Airport Information

Runway Information
Runway 04 Length 7933 ft width 148 ft
Elevation 46 ft Threshold 344 ft Heading 38
Runway 22 Length 7933 ft Width 148 ft
Elevation 27 ft Threshold 617 ft Heading 218
Airport Frequencies
Type APP Name APP Frequency 120.05 MHZ
Type TWR Name TWR Frequency 118.45 MHZ
Airport Navaids
Type VOR-DME Name Pescara Frequency 115900 KHZ
Airport Weather Information & NOTAM
ADDS - METARS form results

(2318 UTC 21 February 2018)
 
METAR text: LIBP 212250Z AUTO 25005KT 9999 OVC025/// 07/03 Q1001
Conditions at: LIBP (PESCARA , IT) observed 2250 UTC 21 February 2018
Temperature: 7.0°C (45°F)
Dewpoint: 3.0°C (37°F) [RH = 76%]
Pressure (altimeter): 29.56 inches Hg (1001.0 mb)
Winds: from the WSW (250 degrees) at 6 MPH (5 knots; 2.6 m/s)
Visibility: 6 or more miles (10+ km)
Ceiling: 2500 feet AGL
Clouds: overcast cloud deck at 2500 feet AGL
Weather: no significant weather observed at this time